sensor_id;sensor_type;location;lat;lon;timestamp;P1;durP1;ratioP1;P2;durP2;ratioP2
9176;SDS011;4623;54.310;10.112;2022-09-09T00:00:40;15.17;;;13.77;;
9176;SDS011;4623;54.310;10.112;2022-09-09T00:03:35;12.13;;;10.93;;
9176;SDS011;4623;54.310;10.112;2022-09-09T00:06:21;11.63;;;10.57;;
9176;SDS011;4623;54.310;10.112;2022-09-09T00:11:46;15.97;;;14.47;;
9176;SDS011;4623;54.310;10.112;2022-09-09T00:20:10;11.07;;;10.17;;
9176;SDS011;4623;54.310;10.112;2022-09-09T00:22:40;15.60;;;14.07;;
9176;SDS011;4623;54.310;10.112;2022-09-09T00:25:22;13.83;;;12.53;;
9176;SDS011;4623;54.310;10.112;2022-09-09T00:27:55;13.33;;;12.00;;
9176;SDS011;4623;54.310;10.112;2022-09-09T00:30:23;14.23;;;12.97;;
9176;SDS011;4623;54.310;10.112;2022-09-09T00:32:53;16.03;;;14.57;;
9176;SDS011;4623;54.310;10.112;2022-09-09T00:35:31;14.13;;;12.87;;
9176;SDS011;4623;54.310;10.112;2022-09-09T00:38:22;15.80;;;14.33;;
9176;SDS011;4623;54.310;10.112;2022-09-09T00:43:25;18.43;;;16.50;;
9176;SDS011;4623;54.310;10.112;2022-09-09T00:59:48;18.43;;;16.67;;
9176;SDS011;4623;54.310;10.112;2022-09-09T01:02:31;15.70;;;14.20;;
9176;SDS011;4623;54.310;10.112;2022-09-09T01:05:23;13.57;;;12.47;;
9176;SDS011;4623;54.310;10.112;2022-09-09T01:08:00;13.43;;;12.30;;
9176;SDS011;4623;54.310;10.112;2022-09-09T01:10:46;13.43;;;12.27;;
9176;SDS011;4623;54.310;10.112;2022-09-09T01:13:25;12.03;;;11.03;;
9176;SDS011;4623;54.310;10.112;2022-09-09T01:15:55;10.97;;;10.07;;
9176;SDS011;4623;54.310;10.112;2022-09-09T01:18:26;12.27;;;11.23;;
9176;SDS011;4623;54.310;10.112;2022-09-09T01:26:41;12.00;;;10.90;;
9176;SDS011;4623;54.310;10.112;2022-09-09T01:29:08;12.60;;;11.53;;
9176;SDS011;4623;54.310;10.112;2022-09-09T01:31:39;14.93;;;13.47;;
9176;SDS011;4623;54.310;10.112;2022-09-09T01:34:10;12.10;;;10.90;;
9176;SDS011;4623;54.310;10.112;2022-09-09T01:36:44;12.10;;;11.00;;
9176;SDS011;4623;54.310;10.112;2022-09-09T01:39:16;12.53;;;11.33;;
9176;SDS011;4623;54.310;10.112;2022-09-09T01:41:42;12.70;;;11.50;;
9176;SDS011;4623;54.310;10.112;2022-09-09T01:44:08;12.30;;;11.20;;
9176;SDS011;4623;54.310;10.112;2022-09-09T01:46:34;10.80;;;9.77;;
9176;SDS011;4623;54.310;10.112;2022-09-09T01:49:00;13.37;;;11.97;;
9176;SDS011;4623;54.310;10.112;2022-09-09T01:51:28;14.10;;;12.70;;
9176;SDS011;4623;54.310;10.112;2022-09-09T01:53:54;14.23;;;12.93;;
9176;SDS011;4623;54.310;10.112;2022-09-09T02:12:43;11.07;;;10.10;;
9176;SDS011;4623;54.310;10.112;2022-09-09T02:15:30;11.07;;;9.97;;
9176;SDS011;4623;54.310;10.112;2022-09-09T02:18:01;16.10;;;12.57;;
9176;SDS011;4623;54.310;10.112;2022-09-09T02:20:33;11.03;;;10.07;;
9176;SDS011;4623;54.310;10.112;2022-09-09T02:23:02;12.13;;;10.93;;
9176;SDS011;4623;54.310;10.112;2022-09-09T02:25:30;10.40;;;9.40;;
9176;SDS011;4623;54.310;10.112;2022-09-09T02:27:58;10.13;;;9.13;;
9176;SDS011;4623;54.310;10.112;2022-09-09T02:30:24;11.70;;;10.60;;
9176;SDS011;4623;54.310;10.112;2022-09-09T02:32:51;12.87;;;11.60;;
9176;SDS011;4623;54.310;10.112;2022-09-09T02:35:22;12.43;;;11.33;;
9176;SDS011;4623;54.310;10.112;2022-09-09T02:37:50;12.23;;;11.03;;
9176;SDS011;4623;54.310;10.112;2022-09-09T02:40:18;13.33;;;11.47;;
9176;SDS011;4623;54.310;10.112;2022-09-09T02:42:46;13.80;;;12.60;;
9176;SDS011;4623;54.310;10.112;2022-09-09T02:45:18;12.63;;;11.33;;
9176;SDS011;4623;54.310;10.112;2022-09-09T02:50:52;15.43;;;14.03;;
9176;SDS011;4623;54.310;10.112;2022-09-09T02:53:57;15.07;;;13.70;;
9176;SDS011;4623;54.310;10.112;2022-09-09T02:56:25;15.53;;;13.93;;
9176;SDS011;4623;54.310;10.112;2022-09-09T02:58:55;18.00;;;15.27;;
9176;SDS011;4623;54.310;10.112;2022-09-09T03:01:21;16.80;;;15.00;;
9176;SDS011;4623;54.310;10.112;2022-09-09T03:03:46;15.53;;;13.97;;
9176;SDS011;4623;54.310;10.112;2022-09-09T03:06:13;17.97;;;16.10;;
9176;SDS011;4623;54.310;10.112;2022-09-09T03:08:39;17.53;;;15.80;;
9176;SDS011;4623;54.310;10.112;2022-09-09T03:11:06;18.87;;;16.97;;
9176;SDS011;4623;54.310;10.112;2022-09-09T03:13:34;20.93;;;18.33;;
9176;SDS011;4623;54.310;10.112;2022-09-09T03:15:59;17.80;;;15.97;;
9176;SDS011;4623;54.310;10.112;2022-09-09T03:18:25;18.93;;;16.97;;
9176;SDS011;4623;54.310;10.112;2022-09-09T03:20:51;19.30;;;17.30;;
9176;SDS011;4623;54.310;10.112;2022-09-09T03:23:19;27.70;;;23.07;;
9176;SDS011;4623;54.310;10.112;2022-09-09T03:25:47;21.77;;;18.80;;
9176;SDS011;4623;54.310;10.112;2022-09-09T03:28:13;32.67;;;25.17;;
9176;SDS011;4623;54.310;10.112;2022-09-09T03:30:40;31.53;;;24.93;;
9176;SDS011;4623;54.310;10.112;2022-09-09T03:33:05;32.37;;;27.57;;
9176;SDS011;4623;54.310;10.112;2022-09-09T03:35:31;29.50;;;24.30;;
9176;SDS011;4623;54.310;10.112;2022-09-09T03:37:57;30.37;;;24.10;;
9176;SDS011;4623;54.310;10.112;2022-09-09T03:40:23;26.80;;;21.93;;
9176;SDS011;4623;54.310;10.112;2022-09-09T03:42:48;29.63;;;23.27;;
9176;SDS011;4623;54.310;10.112;2022-09-09T03:45:14;30.80;;;25.13;;
9176;SDS011;4623;54.310;10.112;2022-09-09T03:47:39;30.70;;;23.17;;
9176;SDS011;4623;54.310;10.112;2022-09-09T03:50:06;37.93;;;26.87;;
9176;SDS011;4623;54.310;10.112;2022-09-09T03:52:37;41.10;;;27.43;;
9176;SDS011;4623;54.310;10.112;2022-09-09T03:55:04;33.57;;;23.03;;
9176;SDS011;4623;54.310;10.112;2022-09-09T03:57:30;27.23;;;22.27;;
9176;SDS011;4623;54.310;10.112;2022-09-09T03:59:56;28.83;;;22.43;;
9176;SDS011;4623;54.310;10.112;2022-09-09T04:02:23;41.70;;;29.47;;
9176;SDS011;4623;54.310;10.112;2022-09-09T04:04:48;28.87;;;22.57;;
9176;SDS011;4623;54.310;10.112;2022-09-09T04:07:14;34.23;;;26.17;;
9176;SDS011;4623;54.310;10.112;2022-09-09T04:09:40;33.20;;;26.37;;
9176;SDS011;4623;54.310;10.112;2022-09-09T04:12:06;26.37;;;20.70;;
9176;SDS011;4623;54.310;10.112;2022-09-09T04:14:32;27.40;;;21.20;;
9176;SDS011;4623;54.310;10.112;2022-09-09T04:16:57;25.13;;;19.63;;
9176;SDS011;4623;54.310;10.112;2022-09-09T04:19:24;24.73;;;19.03;;
9176;SDS011;4623;54.310;10.112;2022-09-09T04:21:50;22.07;;;19.17;;
9176;SDS011;4623;54.310;10.112;2022-09-09T04:24:16;22.50;;;19.33;;
9176;SDS011;4623;54.310;10.112;2022-09-09T04:26:42;20.93;;;16.07;;
9176;SDS011;4623;54.310;10.112;2022-09-09T04:29:08;18.83;;;15.53;;
9176;SDS011;4623;54.310;10.112;2022-09-09T04:31:34;29.97;;;23.53;;
9176;SDS011;4623;54.310;10.112;2022-09-09T04:34:00;32.80;;;22.93;;
9176;SDS011;4623;54.310;10.112;2022-09-09T04:36:30;24.70;;;21.03;;
9176;SDS011;4623;54.310;10.112;2022-09-09T04:38:57;25.70;;;21.63;;
9176;SDS011;4623;54.310;10.112;2022-09-09T04:41:22;28.23;;;22.83;;
9176;SDS011;4623;54.310;10.112;2022-09-09T04:43:48;29.87;;;24.47;;
9176;SDS011;4623;54.310;10.112;2022-09-09T04:46:15;24.37;;;19.57;;
9176;SDS011;4623;54.310;10.112;2022-09-09T04:48:42;24.17;;;21.20;;
9176;SDS011;4623;54.310;10.112;2022-09-09T04:51:09;31.07;;;23.90;;
9176;SDS011;4623;54.310;10.112;2022-09-09T04:53:38;30.17;;;23.77;;
9176;SDS011;4623;54.310;10.112;2022-09-09T04:56:05;28.37;;;23.50;;
9176;SDS011;4623;54.310;10.112;2022-09-09T04:58:39;26.90;;;23.90;;
9176;SDS011;4623;54.310;10.112;2022-09-09T05:03:40;35.63;;;28.40;;
9176;SDS011;4623;54.310;10.112;2022-09-09T05:06:07;28.47;;;24.70;;
9176;SDS011;4623;54.310;10.112;2022-09-09T05:08:38;29.43;;;24.83;;
9176;SDS011;4623;54.310;10.112;2022-09-09T05:11:16;28.33;;;23.57;;
9176;SDS011;4623;54.310;10.112;2022-09-09T05:13:44;29.80;;;25.23;;
9176;SDS011;4623;54.310;10.112;2022-09-09T05:16:10;38.17;;;29.03;;
9176;SDS011;4623;54.310;10.112;2022-09-09T05:18:37;30.53;;;26.33;;
9176;SDS011;4623;54.310;10.112;2022-09-09T05:21:04;28.07;;;22.60;;
9176;SDS011;4623;54.310;10.112;2022-09-09T05:23:31;26.43;;;22.63;;
9176;SDS011;4623;54.310;10.112;2022-09-09T05:25:58;34.23;;;27.07;;
9176;SDS011;4623;54.310;10.112;2022-09-09T05:28:24;33.83;;;27.00;;
9176;SDS011;4623;54.310;10.112;2022-09-09T05:31:00;25.03;;;22.33;;
9176;SDS011;4623;54.310;10.112;2022-09-09T05:33:29;25.13;;;19.63;;
9176;SDS011;4623;54.310;10.112;2022-09-09T05:35:56;29.60;;;25.27;;
9176;SDS011;4623;54.310;10.112;2022-09-09T05:38:41;19.10;;;17.10;;
9176;SDS011;4623;54.310;10.112;2022-09-09T05:41:08;30.53;;;25.00;;
9176;SDS011;4623;54.310;10.112;2022-09-09T05:43:36;23.33;;;20.83;;
9176;SDS011;4623;54.310;10.112;2022-09-09T05:46:06;22.83;;;20.43;;
9176;SDS011;4623;54.310;10.112;2022-09-09T05:48:39;33.23;;;24.70;;
9176;SDS011;4623;54.310;10.112;2022-09-09T05:51:07;22.20;;;19.10;;
9176;SDS011;4623;54.310;10.112;2022-09-09T05:53:35;23.47;;;20.80;;
9176;SDS011;4623;54.310;10.112;2022-09-09T05:58:39;23.00;;;20.57;;
9176;SDS011;4623;54.310;10.112;2022-09-09T06:01:12;29.53;;;25.60;;
9176;SDS011;4623;54.310;10.112;2022-09-09T06:03:43;35.87;;;26.23;;
9176;SDS011;4623;54.310;10.112;2022-09-09T06:06:11;26.43;;;23.33;;
9176;SDS011;4623;54.310;10.112;2022-09-09T06:08:39;23.63;;;19.63;;
9176;SDS011;4623;54.310;10.112;2022-09-09T06:11:11;33.27;;;26.27;;
9176;SDS011;4623;54.310;10.112;2022-09-09T06:13:41;30.53;;;23.63;;
9176;SDS011;4623;54.310;10.112;2022-09-09T06:16:08;26.30;;;22.00;;
9176;SDS011;4623;54.310;10.112;2022-09-09T06:18:37;30.80;;;23.30;;
9176;SDS011;4623;54.310;10.112;2022-09-09T06:21:04;24.23;;;20.40;;
9176;SDS011;4623;54.310;10.112;2022-09-09T06:23:35;27.97;;;23.63;;
9176;SDS011;4623;54.310;10.112;2022-09-09T06:26:03;35.87;;;26.27;;
9176;SDS011;4623;54.310;10.112;2022-09-09T06:28:37;31.97;;;24.50;;
9176;SDS011;4623;54.310;10.112;2022-09-09T06:31:03;31.43;;;23.77;;
9176;SDS011;4623;54.310;10.112;2022-09-09T06:33:31;32.43;;;24.30;;
9176;SDS011;4623;54.310;10.112;2022-09-09T06:36:00;27.20;;;21.90;;
9176;SDS011;4623;54.310;10.112;2022-09-09T06:38:26;36.47;;;24.90;;
9176;SDS011;4623;54.310;10.112;2022-09-09T06:40:56;37.23;;;27.10;;
9176;SDS011;4623;54.310;10.112;2022-09-09T06:43:23;29.43;;;22.20;;
9176;SDS011;4623;54.310;10.112;2022-09-09T06:45:56;37.40;;;27.03;;
9176;SDS011;4623;54.310;10.112;2022-09-09T06:48:23;29.90;;;23.43;;
9176;SDS011;4623;54.310;10.112;2022-09-09T06:50:50;36.80;;;25.87;;
9176;SDS011;4623;54.310;10.112;2022-09-09T06:53:24;33.90;;;23.60;;
9176;SDS011;4623;54.310;10.112;2022-09-09T06:55:51;41.07;;;29.80;;
9176;SDS011;4623;54.310;10.112;2022-09-09T06:58:16;34.37;;;25.30;;
9176;SDS011;4623;54.310;10.112;2022-09-09T07:00:42;35.37;;;27.03;;
9176;SDS011;4623;54.310;10.112;2022-09-09T07:03:09;38.53;;;28.17;;
9176;SDS011;4623;54.310;10.112;2022-09-09T07:05:35;31.53;;;25.57;;
9176;SDS011;4623;54.310;10.112;2022-09-09T07:08:01;30.90;;;24.83;;
9176;SDS011;4623;54.310;10.112;2022-09-09T07:10:27;27.90;;;22.50;;
9176;SDS011;4623;54.310;10.112;2022-09-09T07:12:53;32.30;;;24.53;;
9176;SDS011;4623;54.310;10.112;2022-09-09T07:15:19;32.60;;;24.23;;
9176;SDS011;4623;54.310;10.112;2022-09-09T07:17:46;30.30;;;24.40;;
9176;SDS011;4623;54.310;10.112;2022-09-09T07:20:13;28.57;;;23.67;;
9176;SDS011;4623;54.310;10.112;2022-09-09T07:22:39;26.23;;;22.07;;
9176;SDS011;4623;54.310;10.112;2022-09-09T07:25:05;24.97;;;21.07;;
9176;SDS011;4623;54.310;10.112;2022-09-09T07:27:32;26.83;;;22.73;;
9176;SDS011;4623;54.310;10.112;2022-09-09T07:29:57;28.27;;;24.20;;
9176;SDS011;4623;54.310;10.112;2022-09-09T07:32:23;23.63;;;21.13;;
9176;SDS011;4623;54.310;10.112;2022-09-09T07:34:50;22.17;;;19.77;;
9176;SDS011;4623;54.310;10.112;2022-09-09T07:37:16;26.80;;;23.73;;
9176;SDS011;4623;54.310;10.112;2022-09-09T07:39:42;25.03;;;22.27;;
9176;SDS011;4623;54.310;10.112;2022-09-09T07:42:09;21.07;;;18.87;;
9176;SDS011;4623;54.310;10.112;2022-09-09T07:44:36;22.07;;;19.70;;
9176;SDS011;4623;54.310;10.112;2022-09-09T07:47:04;22.07;;;19.67;;
9176;SDS011;4623;54.310;10.112;2022-09-09T07:49:30;21.33;;;18.57;;
9176;SDS011;4623;54.310;10.112;2022-09-09T07:51:57;22.83;;;19.63;;
9176;SDS011;4623;54.310;10.112;2022-09-09T07:54:23;23.60;;;20.60;;
9176;SDS011;4623;54.310;10.112;2022-09-09T07:56:49;22.10;;;19.80;;
9176;SDS011;4623;54.310;10.112;2022-09-09T07:59:17;25.50;;;21.77;;
9176;SDS011;4623;54.310;10.112;2022-09-09T08:01:44;21.43;;;19.17;;
9176;SDS011;4623;54.310;10.112;2022-09-09T08:04:15;20.23;;;17.33;;
9176;SDS011;4623;54.310;10.112;2022-09-09T08:06:47;23.33;;;20.60;;
9176;SDS011;4623;54.310;10.112;2022-09-09T08:09:23;22.03;;;19.77;;
9176;SDS011;4623;54.310;10.112;2022-09-09T08:11:52;21.93;;;19.00;;
9176;SDS011;4623;54.310;10.112;2022-09-09T08:14:17;17.53;;;15.70;;
9176;SDS011;4623;54.310;10.112;2022-09-09T08:16:44;21.47;;;19.27;;
9176;SDS011;4623;54.310;10.112;2022-09-09T08:19:11;19.77;;;17.70;;
9176;SDS011;4623;54.310;10.112;2022-09-09T08:21:38;19.50;;;16.43;;
9176;SDS011;4623;54.310;10.112;2022-09-09T08:24:05;15.33;;;13.83;;
9176;SDS011;4623;54.310;10.112;2022-09-09T08:26:36;15.33;;;13.67;;
9176;SDS011;4623;54.310;10.112;2022-09-09T08:29:03;15.60;;;13.97;;
9176;SDS011;4623;54.310;10.112;2022-09-09T08:31:31;14.73;;;13.33;;
9176;SDS011;4623;54.310;10.112;2022-09-09T08:34:24;14.77;;;13.03;;
9176;SDS011;4623;54.310;10.112;2022-09-09T08:36:51;18.10;;;16.33;;
9176;SDS011;4623;54.310;10.112;2022-09-09T08:39:18;20.73;;;15.67;;
9176;SDS011;4623;54.310;10.112;2022-09-09T08:50:26;14.37;;;13.00;;
9176;SDS011;4623;54.310;10.112;2022-09-09T08:55:40;12.90;;;11.60;;
9176;SDS011;4623;54.310;10.112;2022-09-09T09:12:15;18.50;;;16.77;;
9176;SDS011;4623;54.310;10.112;2022-09-09T09:14:44;12.30;;;11.20;;
9176;SDS011;4623;54.310;10.112;2022-09-09T09:17:13;14.37;;;12.93;;
9176;SDS011;4623;54.310;10.112;2022-09-09T09:19:42;15.37;;;13.87;;
9176;SDS011;4623;54.310;10.112;2022-09-09T09:24:49;10.60;;;9.57;;
9176;SDS011;4623;54.310;10.112;2022-09-09T09:30:16;13.18;;;12.00;;
9176;SDS011;4623;54.310;10.112;2022-09-09T09:32:51;10.48;;;9.48;;
9176;SDS011;4623;54.310;10.112;2022-09-09T09:35:19;12.70;;;11.50;;
9176;SDS011;4623;54.310;10.112;2022-09-09T09:37:45;13.60;;;12.38;;
9176;SDS011;4623;54.310;10.112;2022-09-09T09:40:16;9.02;;;8.32;;
9176;SDS011;4623;54.310;10.112;2022-09-09T09:45:34;9.85;;;8.95;;
9176;SDS011;4623;54.310;10.112;2022-09-09T09:48:09;13.27;;;12.07;;
9176;SDS011;4623;54.310;10.112;2022-09-09T09:50:45;8.80;;;7.88;;
9176;SDS011;4623;54.310;10.112;2022-09-09T09:53:21;12.27;;;11.00;;
9176;SDS011;4623;54.310;10.112;2022-09-09T09:55:54;12.23;;;10.95;;
9176;SDS011;4623;54.310;10.112;2022-09-09T09:58:25;11.00;;;9.13;;
9176;SDS011;4623;54.310;10.112;2022-09-09T10:00:58;10.27;;;9.15;;
9176;SDS011;4623;54.310;10.112;2022-09-09T10:03:29;6.70;;;6.10;;
9176;SDS011;4623;54.310;10.112;2022-09-09T10:05:56;9.25;;;8.43;;
9176;SDS011;4623;54.310;10.112;2022-09-09T10:08:25;6.88;;;6.28;;
9176;SDS011;4623;54.310;10.112;2022-09-09T10:11:05;7.57;;;6.85;;
9176;SDS011;4623;54.310;10.112;2022-09-09T10:19:30;6.30;;;5.70;;
9176;SDS011;4623;54.310;10.112;2022-09-09T10:24:54;6.82;;;5.00;;
9176;SDS011;4623;54.310;10.112;2022-09-09T10:30:49;4.55;;;3.85;;
9176;SDS011;4623;54.310;10.112;2022-09-09T10:36:21;4.10;;;3.60;;
9176;SDS011;4623;54.310;10.112;2022-09-09T10:38:52;3.63;;;3.17;;
9176;SDS011;4623;54.310;10.112;2022-09-09T10:46:44;3.70;;;3.05;;
9176;SDS011;4623;54.310;10.112;2022-09-09T10:53:08;3.35;;;2.80;;
9176;SDS011;4623;54.310;10.112;2022-09-09T10:55:19;2.38;;;2.17;;
9176;SDS011;4623;54.310;10.112;2022-09-09T10:57:50;5.00;;;2.17;;
9176;SDS011;4623;54.310;10.112;2022-09-09T11:00:20;2.95;;;1.95;;
9176;SDS011;4623;54.310;10.112;2022-09-09T11:03:01;2.15;;;1.95;;
9176;SDS011;4623;54.310;10.112;2022-09-09T11:05:32;4.80;;;2.28;;
9176;SDS011;4623;54.310;10.112;2022-09-09T11:08:10;2.90;;;2.28;;
9176;SDS011;4623;54.310;10.112;2022-09-09T11:13:15;2.58;;;1.70;;
9176;SDS011;4623;54.310;10.112;2022-09-09T11:15:52;3.80;;;2.28;;
9176;SDS011;4623;54.310;10.112;2022-09-09T11:18:24;2.08;;;1.83;;
9176;SDS011;4623;54.310;10.112;2022-09-09T11:20:55;1.85;;;1.50;;
9176;SDS011;4623;54.310;10.112;2022-09-09T11:23:33;2.28;;;1.73;;
9176;SDS011;4623;54.310;10.112;2022-09-09T11:26:06;3.05;;;1.90;;
9176;SDS011;4623;54.310;10.112;2022-09-09T11:44:44;1.67;;;1.27;;
9176;SDS011;4623;54.310;10.112;2022-09-09T11:47:19;2.28;;;1.42;;
9176;SDS011;4623;54.310;10.112;2022-09-09T11:52:40;1.88;;;1.40;;
9176;SDS011;4623;54.310;10.112;2022-09-09T11:55:27;1.45;;;1.15;;
9176;SDS011;4623;54.310;10.112;2022-09-09T11:57:59;1.55;;;1.45;;
9176;SDS011;4623;54.310;10.112;2022-09-09T12:00:47;1.63;;;1.35;;
9176;SDS011;4623;54.310;10.112;2022-09-09T12:09:07;2.38;;;1.50;;
9176;SDS011;4623;54.310;10.112;2022-09-09T12:11:40;2.70;;;1.50;;
9176;SDS011;4623;54.310;10.112;2022-09-09T12:14:18;1.23;;;1.13;;
9176;SDS011;4623;54.310;10.112;2022-09-09T12:17:09;2.80;;;1.48;;
9176;SDS011;4623;54.310;10.112;2022-09-09T12:19:42;1.40;;;1.30;;
9176;SDS011;4623;54.310;10.112;2022-09-09T12:22:11;2.08;;;1.50;;
9176;SDS011;4623;54.310;10.112;2022-09-09T12:25:01;1.90;;;1.30;;
9176;SDS011;4623;54.310;10.112;2022-09-09T12:30:32;1.17;;;1.08;;
9176;SDS011;4623;54.310;10.112;2022-09-09T12:33:10;1.90;;;1.08;;
9176;SDS011;4623;54.310;10.112;2022-09-09T12:35:38;2.08;;;1.10;;
9176;SDS011;4623;54.310;10.112;2022-09-09T12:38:05;1.30;;;1.20;;
9176;SDS011;4623;54.310;10.112;2022-09-09T12:40:36;3.45;;;1.70;;
9176;SDS011;4623;54.310;10.112;2022-09-09T12:43:14;3.70;;;1.30;;
9176;SDS011;4623;54.310;10.112;2022-09-09T12:45:46;1.92;;;1.30;;
9176;SDS011;4623;54.310;10.112;2022-09-09T12:48:15;1.95;;;1.35;;
9176;SDS011;4623;54.310;10.112;2022-09-09T12:53:28;2.05;;;1.20;;
9176;SDS011;4623;54.310;10.112;2022-09-09T12:58:35;1.88;;;1.35;;
9176;SDS011;4623;54.310;10.112;2022-09-09T13:01:03;1.55;;;1.20;;
9176;SDS011;4623;54.310;10.112;2022-09-09T13:03:31;1.20;;;1.10;;
9176;SDS011;4623;54.310;10.112;2022-09-09T13:05:59;1.55;;;1.05;;
9176;SDS011;4623;54.310;10.112;2022-09-09T13:08:39;1.50;;;0.98;;
9176;SDS011;4623;54.310;10.112;2022-09-09T13:11:10;1.13;;;1.00;;
9176;SDS011;4623;54.310;10.112;2022-09-09T13:13:41;1.73;;;1.05;;
9176;SDS011;4623;54.310;10.112;2022-09-09T13:19:07;1.15;;;1.05;;
9176;SDS011;4623;54.310;10.112;2022-09-09T13:21:35;3.75;;;1.35;;
9176;SDS011;4623;54.310;10.112;2022-09-09T13:24:05;1.40;;;1.10;;
9176;SDS011;4623;54.310;10.112;2022-09-09T13:26:54;1.02;;;0.93;;
9176;SDS011;4623;54.310;10.112;2022-09-09T13:29:21;1.10;;;1.00;;
9176;SDS011;4623;54.310;10.112;2022-09-09T13:31:47;1.23;;;1.10;;
9176;SDS011;4623;54.310;10.112;2022-09-09T13:34:22;1.85;;;1.40;;
9176;SDS011;4623;54.310;10.112;2022-09-09T13:36:52;2.25;;;1.38;;
9176;SDS011;4623;54.310;10.112;2022-09-09T13:39:24;1.88;;;1.13;;
9176;SDS011;4623;54.310;10.112;2022-09-09T13:41:50;2.85;;;1.50;;
9176;SDS011;4623;54.310;10.112;2022-09-09T13:44:22;1.85;;;1.45;;
9176;SDS011;4623;54.310;10.112;2022-09-09T13:47:00;1.10;;;1.00;;
9176;SDS011;4623;54.310;10.112;2022-09-09T13:49:29;1.60;;;1.50;;
9176;SDS011;4623;54.310;10.112;2022-09-09T13:54:32;2.97;;;1.38;;
9176;SDS011;4623;54.310;10.112;2022-09-09T13:56:58;1.77;;;1.20;;
9176;SDS011;4623;54.310;10.112;2022-09-09T13:59:23;2.25;;;1.50;;
9176;SDS011;4623;54.310;10.112;2022-09-09T14:01:49;2.50;;;1.30;;
9176;SDS011;4623;54.310;10.112;2022-09-09T14:04:17;1.75;;;1.60;;
9176;SDS011;4623;54.310;10.112;2022-09-09T14:06:43;1.27;;;1.00;;
9176;SDS011;4623;54.310;10.112;2022-09-09T14:09:13;2.47;;;1.30;;
9176;SDS011;4623;54.310;10.112;2022-09-09T14:11:40;1.38;;;1.10;;
9176;SDS011;4623;54.310;10.112;2022-09-09T14:14:06;3.45;;;1.27;;
9176;SDS011;4623;54.310;10.112;2022-09-09T14:16:32;3.17;;;1.60;;
9176;SDS011;4623;54.310;10.112;2022-09-09T14:18:58;1.77;;;1.10;;
9176;SDS011;4623;54.310;10.112;2022-09-09T14:21:24;3.63;;;1.45;;
9176;SDS011;4623;54.310;10.112;2022-09-09T14:23:51;1.10;;;1.00;;
9176;SDS011;4623;54.310;10.112;2022-09-09T14:26:23;1.73;;;1.15;;
9176;SDS011;4623;54.310;10.112;2022-09-09T14:28:50;1.75;;;1.30;;
9176;SDS011;4623;54.310;10.112;2022-09-09T14:31:16;2.95;;;1.75;;
9176;SDS011;4623;54.310;10.112;2022-09-09T14:33:43;3.30;;;1.55;;
9176;SDS011;4623;54.310;10.112;2022-09-09T14:36:10;1.75;;;1.20;;
9176;SDS011;4623;54.310;10.112;2022-09-09T14:38:36;2.15;;;1.75;;
9176;SDS011;4623;54.310;10.112;2022-09-09T14:41:06;2.83;;;1.45;;
9176;SDS011;4623;54.310;10.112;2022-09-09T14:43:34;2.15;;;1.40;;
9176;SDS011;4623;54.310;10.112;2022-09-09T14:46:10;1.60;;;1.35;;
9176;SDS011;4623;54.310;10.112;2022-09-09T14:48:37;1.63;;;1.20;;
9176;SDS011;4623;54.310;10.112;2022-09-09T14:51:06;1.42;;;1.20;;
9176;SDS011;4623;54.310;10.112;2022-09-09T14:53:31;1.63;;;1.38;;
9176;SDS011;4623;54.310;10.112;2022-09-09T14:56:07;2.60;;;1.30;;
9176;SDS011;4623;54.310;10.112;2022-09-09T14:58:40;3.30;;;1.42;;
9176;SDS011;4623;54.310;10.112;2022-09-09T15:01:11;2.03;;;1.15;;
9176;SDS011;4623;54.310;10.112;2022-09-09T15:03:39;3.03;;;1.30;;
9176;SDS011;4623;54.310;10.112;2022-09-09T15:06:10;3.13;;;1.70;;
9176;SDS011;4623;54.310;10.112;2022-09-09T15:08:39;2.55;;;1.25;;
9176;SDS011;4623;54.310;10.112;2022-09-09T15:11:06;1.83;;;1.45;;
9176;SDS011;4623;54.310;10.112;2022-09-09T15:13:33;2.67;;;1.73;;
9176;SDS011;4623;54.310;10.112;2022-09-09T15:16:04;3.90;;;1.67;;
9176;SDS011;4623;54.310;10.112;2022-09-09T15:18:40;6.43;;;2.25;;
9176;SDS011;4623;54.310;10.112;2022-09-09T15:21:13;3.78;;;1.92;;
9176;SDS011;4623;54.310;10.112;2022-09-09T15:23:47;3.40;;;2.05;;
9176;SDS011;4623;54.310;10.112;2022-09-09T15:26:14;4.18;;;2.22;;
9176;SDS011;4623;54.310;10.112;2022-09-09T15:28:40;2.33;;;1.53;;
9176;SDS011;4623;54.310;10.112;2022-09-09T15:31:12;3.87;;;1.90;;
9176;SDS011;4623;54.310;10.112;2022-09-09T15:33:45;3.23;;;1.87;;
9176;SDS011;4623;54.310;10.112;2022-09-09T15:36:26;3.17;;;1.80;;
9176;SDS011;4623;54.310;10.112;2022-09-09T15:39:02;2.80;;;1.87;;
9176;SDS011;4623;54.310;10.112;2022-09-09T15:41:30;2.27;;;1.70;;
9176;SDS011;4623;54.310;10.112;2022-09-09T15:43:56;1.70;;;1.50;;
9176;SDS011;4623;54.310;10.112;2022-09-09T15:46:30;1.43;;;1.30;;
9176;SDS011;4623;54.310;10.112;2022-09-09T15:49:19;2.93;;;1.67;;
9176;SDS011;4623;54.310;10.112;2022-09-09T15:51:45;2.37;;;1.83;;
9176;SDS011;4623;54.310;10.112;2022-09-09T15:54:16;1.93;;;1.53;;
9176;SDS011;4623;54.310;10.112;2022-09-09T15:56:43;2.27;;;1.70;;
9176;SDS011;4623;54.310;10.112;2022-09-09T15:59:10;1.50;;;1.40;;
9176;SDS011;4623;54.310;10.112;2022-09-09T16:01:36;1.70;;;1.60;;
9176;SDS011;4623;54.310;10.112;2022-09-09T16:04:04;2.50;;;1.83;;
9176;SDS011;4623;54.310;10.112;2022-09-09T16:06:30;2.03;;;1.67;;
9176;SDS011;4623;54.310;10.112;2022-09-09T16:08:57;1.37;;;1.27;;
9176;SDS011;4623;54.310;10.112;2022-09-09T16:11:27;2.47;;;1.40;;
9176;SDS011;4623;54.310;10.112;2022-09-09T16:13:57;1.50;;;1.40;;
9176;SDS011;4623;54.310;10.112;2022-09-09T16:16:24;1.43;;;1.33;;
9176;SDS011;4623;54.310;10.112;2022-09-09T16:18:54;1.83;;;1.33;;
9176;SDS011;4623;54.310;10.112;2022-09-09T16:21:27;1.77;;;1.57;;
9176;SDS011;4623;54.310;10.112;2022-09-09T16:23:54;1.50;;;1.40;;
9176;SDS011;4623;54.310;10.112;2022-09-09T16:26:21;1.80;;;1.60;;
9176;SDS011;4623;54.310;10.112;2022-09-09T16:28:47;2.87;;;1.80;;
9176;SDS011;4623;54.310;10.112;2022-09-09T16:31:18;2.00;;;1.70;;
9176;SDS011;4623;54.310;10.112;2022-09-09T16:33:45;2.70;;;1.97;;
9176;SDS011;4623;54.310;10.112;2022-09-09T16:36:13;1.67;;;1.50;;
9176;SDS011;4623;54.310;10.112;2022-09-09T16:38:47;2.07;;;1.80;;
9176;SDS011;4623;54.310;10.112;2022-09-09T16:41:13;1.93;;;1.47;;
9176;SDS011;4623;54.310;10.112;2022-09-09T16:43:40;2.00;;;1.70;;
9176;SDS011;4623;54.310;10.112;2022-09-09T16:46:11;2.20;;;1.73;;
9176;SDS011;4623;54.310;10.112;2022-09-09T16:48:43;1.93;;;1.70;;
9176;SDS011;4623;54.310;10.112;2022-09-09T16:51:14;3.87;;;2.20;;
9176;SDS011;4623;54.310;10.112;2022-09-09T16:53:42;2.77;;;2.00;;
9176;SDS011;4623;54.310;10.112;2022-09-09T16:56:09;1.73;;;1.63;;
9176;SDS011;4623;54.310;10.112;2022-09-09T16:58:37;2.67;;;2.47;;
9176;SDS011;4623;54.310;10.112;2022-09-09T17:01:03;3.93;;;1.87;;
9176;SDS011;4623;54.310;10.112;2022-09-09T17:03:29;2.47;;;1.93;;
9176;SDS011;4623;54.310;10.112;2022-09-09T17:05:56;2.07;;;1.87;;
9176;SDS011;4623;54.310;10.112;2022-09-09T17:08:23;2.07;;;1.70;;
9176;SDS011;4623;54.310;10.112;2022-09-09T17:10:49;1.83;;;1.73;;
9176;SDS011;4623;54.310;10.112;2022-09-09T17:13:15;3.87;;;2.10;;
9176;SDS011;4623;54.310;10.112;2022-09-09T17:15:44;2.83;;;1.53;;
9176;SDS011;4623;54.310;10.112;2022-09-09T17:18:11;1.87;;;1.60;;
9176;SDS011;4623;54.310;10.112;2022-09-09T17:20:38;2.30;;;1.90;;
9176;SDS011;4623;54.310;10.112;2022-09-09T17:23:05;2.00;;;1.80;;
9176;SDS011;4623;54.310;10.112;2022-09-09T17:25:32;2.70;;;1.90;;
9176;SDS011;4623;54.310;10.112;2022-09-09T17:27:58;2.07;;;1.87;;
9176;SDS011;4623;54.310;10.112;2022-09-09T17:30:24;2.33;;;1.77;;
9176;SDS011;4623;54.310;10.112;2022-09-09T17:32:51;1.50;;;1.40;;
9176;SDS011;4623;54.310;10.112;2022-09-09T17:35:16;2.63;;;1.67;;